Time;durP1;ratioP1;P1;durP2;ratioP2;P2;SDS_P1;SDS_P2;PMS_P1;PMS_P2;Temp;Humidity;BMP_temperature;BMP_pressure;BME280_temperature;BME280_humidity;BME280_pressure;Samples;Min_cycle;Max_cycle;Signal;HPM_P1;HPM_P2
2022/12/07 00:00:50;;;;;;;47.47;8.67;;;2.30;99.90;;;;;;4116851;28;20213;-65
2022/12/07 00:02:51;;;;;;;36.40;8.87;;;2.10;99.90;;;;;;4115224;28;21265;-65
2022/12/07 00:04:51;;;;;;;59.53;9.17;;;2.00;99.90;;;;;;4114796;28;20600;-65
2022/12/07 00:06:53;;;;;;;19.33;6.80;;;2.20;99.90;;;;;;4115761;28;20224;-65
2022/12/07 00:08:53;;;;;;;24.90;6.53;;;2.20;99.90;;;;;;4116015;28;20235;-65
2022/12/07 00:10:54;;;;;;;34.70;9.53;;;2.40;99.90;;;;;;4115797;28;20878;-65
2022/12/07 00:12:55;;;;;;;24.47;6.33;;;2.30;99.90;;;;;;4115250;28;20561;-65
2022/12/07 00:14:55;;;;;;;26.73;7.80;;;2.10;99.90;;;;;;4116076;28;20689;-65
2022/12/07 00:16:56;;;;;;;32.23;7.73;;;2.20;99.90;;;;;;4116219;28;20737;-65
2022/12/07 00:18:57;;;;;;;25.80;7.70;;;2.10;99.90;;;;;;4115629;28;20536;-65
2022/12/07 00:21:06;;;;;;;35.60;8.87;;;2.20;99.90;;;;;;4115842;28;20256;-65
2022/12/07 00:23:07;;;;;;;35.90;8.40;;;2.20;99.90;;;;;;4115129;28;20514;-65
2022/12/07 00:25:08;;;;;;;45.20;10.77;;;2.20;99.90;;;;;;4115495;28;20454;-65
2022/12/07 00:27:08;;;;;;;32.40;8.20;;;2.10;99.90;;;;;;4116030;28;20268;-65
2022/12/07 00:29:18;;;;;;;48.80;10.93;;;2.10;99.90;;;;;;4115563;28;20187;-65
2022/12/07 00:31:30;;;;;;;15.23;6.27;;;2.00;99.90;;;;;;4114435;28;20285;-65
2022/12/07 00:33:33;;;;;;;14.93;6.57;;;2.00;99.90;;;;;;4113946;28;20448;-66
2022/12/07 00:35:33;;;;;;;16.33;6.97;;;2.00;99.90;;;;;;4115389;28;20460;-65
2022/12/07 00:37:34;;;;;;;16.00;7.70;;;2.00;99.90;;;;;;4115814;28;20438;-66
2022/12/07 00:39:34;;;;;;;13.77;7.20;;;2.10;99.90;;;;;;4114210;28;20192;-65
2022/12/07 00:41:35;;;;;;;16.13;6.73;;;2.10;99.90;;;;;;4115485;28;20191;-65
2022/12/07 00:43:36;;;;;;;11.17;5.80;;;2.20;99.90;;;;;;4114909;28;20192;-66
2022/12/07 00:45:36;;;;;;;13.60;6.47;;;2.10;99.90;;;;;;4115346;28;20201;-66
2022/12/07 00:47:37;;;;;;;10.60;6.10;;;2.10;99.90;;;;;;4115301;28;20205;-66
2022/12/07 00:49:38;;;;;;;11.00;6.10;;;2.00;99.90;;;;;;4115367;28;20194;-66
2022/12/07 00:51:38;;;;;;;13.33;5.73;;;2.10;99.90;;;;;;4114099;28;20224;-66
2022/12/07 00:53:40;;;;;;;15.33;7.23;;;2.10;99.90;;;;;;4115153;28;20191;-66
2022/12/07 00:55:41;;;;;;;15.20;7.20;;;2.10;99.90;;;;;;4114248;28;20255;-66
2022/12/07 00:57:41;;;;;;;17.87;6.50;;;2.20;99.90;;;;;;4114501;28;20528;-66
2022/12/07 00:59:42;;;;;;;34.00;9.57;;;2.20;99.90;;;;;;4115380;28;20181;-66
2022/12/07 01:01:43;;;;;;;18.80;7.03;;;2.20;99.90;;;;;;4113952;28;20204;-66
2022/12/07 01:03:44;;;;;;;21.33;7.97;;;2.10;99.90;;;;;;4114491;28;20191;-66
2022/12/07 01:05:53;;;;;;;14.37;7.63;;;2.20;99.90;;;;;;4115239;28;20230;-66
2022/12/07 01:07:54;;;;;;;16.80;7.80;;;2.10;99.90;;;;;;4113907;28;20264;-66
2022/12/07 01:09:54;;;;;;;15.30;7.00;;;2.30;99.90;;;;;;4105616;28;21171;-66
2022/12/07 01:11:55;;;;;;;14.23;6.50;;;2.40;99.90;;;;;;4098934;29;20472;-66
2022/12/07 01:13:58;;;;;;;14.63;6.97;;;2.40;99.90;;;;;;4098658;28;20191;-66
2022/12/07 01:16:02;;;;;;;18.37;7.10;;;2.40;99.90;;;;;;4113912;28;20197;-66
2022/12/07 01:18:03;;;;;;;19.27;7.27;;;2.30;99.90;;;;;;4113501;28;20437;-66
2022/12/07 01:20:05;;;;;;;13.63;5.83;;;2.30;99.90;;;;;;4098899;28;20440;-65
2022/12/07 01:22:05;;;;;;;22.10;7.83;;;2.30;99.90;;;;;;4098846;28;20581;-65
2022/12/07 01:24:09;;;;;;;13.43;6.33;;;2.20;99.90;;;;;;4098300;28;20432;-65
2022/12/07 01:26:15;;;;;;;13.10;6.17;;;2.20;99.90;;;;;;4113486;28;20231;-65
2022/12/07 01:28:15;;;;;;;11.73;6.00;;;2.30;99.90;;;;;;4098850;28;20428;-66
2022/12/07 01:30:16;;;;;;;15.10;7.47;;;2.20;99.90;;;;;;4098687;28;20776;-66
2022/12/07 01:32:17;;;;;;;11.47;6.57;;;2.20;99.90;;;;;;4098796;28;20635;-66
2022/12/07 01:34:17;;;;;;;11.90;6.33;;;2.20;99.90;;;;;;4098068;28;20194;-64
2022/12/07 01:36:36;;;;;;;11.10;5.30;;;2.10;99.90;;;;;;4098737;28;20193;-65
2022/12/07 01:38:36;;;;;;;9.97;5.43;;;2.20;99.90;;;;;;4098873;28;20231;-65
2022/12/07 01:40:37;;;;;;;10.80;5.87;;;2.30;99.90;;;;;;4098660;29;20424;-66
2022/12/07 01:42:38;;;;;;;8.73;5.37;;;2.30;99.90;;;;;;4098724;28;20184;-64
2022/12/07 01:45:36;;;;;;;9.03;5.33;;;2.30;99.90;;;;;;4098778;28;20324;-66
2022/12/07 01:47:37;;;;;;;9.27;5.23;;;2.40;99.90;;;;;;4102839;28;20714;-65
2022/12/07 01:49:44;;;;;;;9.87;5.10;;;2.40;99.90;;;;;;4113359;28;20434;-66
2022/12/07 01:51:47;;;;;;;8.60;4.90;;;2.40;99.90;;;;;;4097249;29;20758;-66
2022/12/07 01:53:48;;;;;;;8.63;5.20;;;2.40;99.90;;;;;;4112555;28;20436;-65
2022/12/07 01:55:51;;;;;;;9.23;4.93;;;2.30;99.90;;;;;;4098624;28;20428;-65
2022/12/07 01:57:54;;;;;;;8.63;4.53;;;2.40;99.90;;;;;;4098509;28;20717;-65
2022/12/07 01:59:56;;;;;;;7.37;4.53;;;2.10;99.90;;;;;;4097340;29;20431;-65
2022/12/07 02:01:57;;;;;;;9.00;5.10;;;2.00;99.90;;;;;;4113246;28;20936;-66
2022/12/07 02:03:58;;;;;;;6.83;4.27;;;2.00;99.90;;;;;;4096642;29;20481;-66
2022/12/07 02:06:00;;;;;;;8.13;5.20;;;2.00;99.90;;;;;;4097027;28;20205;-64
2022/12/07 02:08:01;;;;;;;7.17;4.40;;;2.00;99.90;;;;;;4098637;28;20509;-64
2022/12/07 02:10:20;;;;;;;10.03;5.37;;;1.90;99.90;;;;;;4100028;28;20996;-65
2022/12/07 02:12:23;;;;;;;6.57;4.50;;;1.90;99.90;;;;;;4114258;28;20783;-66
2022/12/07 02:14:24;;;;;;;11.73;4.93;;;2.10;99.90;;;;;;4112509;28;20453;-65
2022/12/07 02:16:48;;;;;;;9.83;5.67;;;2.00;99.90;;;;;;4113998;28;20810;-65
2022/12/07 02:19:29;;;;;;;12.00;5.90;;;1.90;99.90;;;;;;4112834;28;20177;-64
2022/12/07 02:21:39;;;;;;;11.10;5.43;;;1.70;99.90;;;;;;4113774;28;20418;-65
2022/12/07 02:24:12;;;;;;;12.23;5.83;;;1.80;99.90;;;;;;4113287;28;20467;-65
2022/12/07 02:26:38;;;;;;;11.80;6.67;;;1.80;99.90;;;;;;4112710;28;20490;-65
2022/12/07 02:29:00;;;;;;;9.73;5.33;;;1.80;99.90;;;;;;4112801;28;21004;-65
2022/12/07 02:31:14;;;;;;;6.83;3.97;;;1.80;99.90;;;;;;4113899;28;20538;-65
2022/12/07 02:33:29;;;;;;;8.97;4.40;;;1.70;99.90;;;;;;4111852;28;20505;-65
2022/12/07 02:35:42;;;;;;;8.17;4.63;;;1.50;99.90;;;;;;4112518;28;20430;-65
2022/12/07 02:37:56;;;;;;;10.07;5.47;;;1.50;99.90;;;;;;4112516;28;20453;-65
2022/12/07 02:40:35;;;;;;;9.07;5.33;;;1.50;99.90;;;;;;4113736;28;20422;-65
2022/12/07 02:42:47;;;;;;;9.73;5.63;;;1.50;99.90;;;;;;4113362;28;20417;-65
2022/12/07 02:44:48;;;;;;;8.83;5.63;;;1.60;99.90;;;;;;4112675;28;21011;-66
2022/12/07 02:46:57;;;;;;;8.53;5.47;;;1.60;99.90;;;;;;4113651;28;20448;-65
2022/12/07 02:48:59;;;;;;;10.37;5.40;;;1.60;99.90;;;;;;4112279;28;20430;-65
2022/12/07 02:51:00;;;;;;;11.60;5.93;;;1.40;99.90;;;;;;4112562;28;20473;-65
2022/12/07 02:53:00;;;;;;;12.40;6.27;;;1.60;99.90;;;;;;4111896;28;20440;-65
2022/12/07 02:55:03;;;;;;;11.00;6.40;;;1.80;99.90;;;;;;4112246;28;20181;-66
2022/12/07 02:57:41;;;;;;;12.30;6.00;;;1.90;99.90;;;;;;4096277;29;20620;-66
2022/12/07 03:00:03;;;;;;;15.00;6.57;;;1.80;99.90;;;;;;4112269;28;20444;-65
2022/12/07 03:02:58;;;;;;;14.20;6.87;;;1.80;99.90;;;;;;4112218;28;20443;-66
2022/12/07 03:05:33;;;;;;;10.47;5.93;;;2.00;99.90;;;;;;4112508;28;20418;-65
2022/12/07 03:08:05;;;;;;;9.63;5.67;;;2.00;99.90;;;;;;4113517;28;20449;-66
2022/12/07 03:10:34;;;;;;;11.97;5.50;;;1.90;99.90;;;;;;4111943;28;20491;-65
2022/12/07 03:13:08;;;;;;;7.40;4.40;;;1.90;99.90;;;;;;4120038;28;20835;-65
2022/12/07 03:15:16;;;;;;;8.07;4.80;;;1.90;99.90;;;;;;4113571;28;20484;-65
2022/12/07 03:17:24;;;;;;;6.80;3.87;;;1.90;99.90;;;;;;4111843;28;20450;-65
2022/12/07 03:19:27;;;;;;;5.23;3.27;;;1.70;99.90;;;;;;4099131;28;20439;-65
2022/12/07 03:21:34;;;;;;;8.47;3.03;;;1.70;99.90;;;;;;4112078;28;20507;-65
2022/12/07 03:23:37;;;;;;;5.47;2.73;;;1.60;99.90;;;;;;4105451;28;20447;-65
2022/12/07 03:25:47;;;;;;;5.10;2.73;;;1.60;99.90;;;;;;4111895;28;20438;-65
2022/12/07 03:28:01;;;;;;;4.90;3.00;;;1.60;99.90;;;;;;4112079;28;20450;-65
2022/12/07 03:30:10;;;;;;;5.30;2.93;;;1.70;99.90;;;;;;4112018;28;20410;-66
2022/12/07 03:32:24;;;;;;;7.70;3.50;;;1.70;99.90;;;;;;4113690;28;21109;-65
2022/12/07 03:34:46;;;;;;;5.07;2.60;;;1.80;99.90;;;;;;4116035;28;20436;-65
2022/12/07 03:36:54;;;;;;;5.17;3.00;;;1.60;99.90;;;;;;4116501;28;20491;-65
2022/12/07 03:39:06;;;;;;;4.30;2.70;;;1.60;99.90;;;;;;4114096;28;20532;-65
2022/12/07 03:41:19;;;;;;;5.00;2.73;;;1.50;99.90;;;;;;4112027;28;20957;-65
2022/12/07 03:43:20;;;;;;;5.30;3.00;;;1.50;99.90;;;;;;4114551;28;20939;-65
2022/12/07 03:45:46;;;;;;;5.97;3.13;;;1.50;99.90;;;;;;4114861;28;20430;-66
2022/12/07 03:48:02;;;;;;;3.53;2.27;;;1.40;99.90;;;;;;4105294;28;20487;-65
2022/12/07 03:50:36;;;;;;;3.73;2.80;;;1.50;99.90;;;;;;4115514;28;20424;-66
2022/12/07 03:52:53;;;;;;;3.53;2.20;;;1.60;99.90;;;;;;4115896;28;20909;-67
2022/12/07 03:55:43;;;;;;;4.57;2.30;;;1.50;99.90;;;;;;4115024;28;20420;-65
2022/12/07 03:57:49;;;;;;;4.03;2.40;;;1.50;99.90;;;;;;4115254;28;20458;-66
2022/12/07 03:59:51;;;;;;;3.53;2.40;;;1.60;99.90;;;;;;4114771;28;20810;-65
2022/12/07 04:01:57;;;;;;;2.87;2.53;;;1.70;99.90;;;;;;4114864;28;20445;-65
2022/12/07 04:03:57;;;;;;;3.90;2.40;;;1.60;99.90;;;;;;4114229;28;20413;-66
2022/12/07 04:05:59;;;;;;;3.70;2.67;;;1.50;99.90;;;;;;4116127;28;20930;-65
2022/12/07 04:07:59;;;;;;;5.27;2.77;;;1.50;99.90;;;;;;4116101;28;20203;-65
2022/12/07 04:10:00;;;;;;;3.33;2.50;;;1.40;99.90;;;;;;4116031;28;20507;-65
2022/12/07 04:12:01;;;;;;;4.97;3.07;;;1.10;99.90;;;;;;4116068;28;20224;-65
2022/12/07 04:14:20;;;;;;;3.97;3.00;;;1.10;99.90;;;;;;4115448;28;20182;-65
2022/12/07 04:16:20;;;;;;;3.77;3.03;;;1.20;99.90;;;;;;4115819;28;20637;-65
2022/12/07 04:18:21;;;;;;;3.90;3.10;;;1.30;99.90;;;;;;4114613;28;20468;-66
2022/12/07 04:20:22;;;;;;;4.40;2.83;;;1.40;99.90;;;;;;4115928;28;20191;-65
2022/12/07 04:22:23;;;;;;;4.40;3.07;;;1.30;99.90;;;;;;4115777;28;20187;-65
2022/12/07 04:24:24;;;;;;;4.17;2.77;;;1.40;99.90;;;;;;4115046;28;20188;-66
2022/12/07 04:26:25;;;;;;;4.73;2.80;;;1.40;99.90;;;;;;4115526;28;20206;-65
2022/12/07 04:28:26;;;;;;;4.77;3.23;;;1.40;99.90;;;;;;4115455;28;20434;-65
2022/12/07 04:30:26;;;;;;;3.87;2.77;;;1.50;99.90;;;;;;4115292;28;20185;-65
2022/12/07 04:32:27;;;;;;;5.63;3.40;;;1.60;99.90;;;;;;4115599;28;20262;-66
2022/12/07 04:34:28;;;;;;;6.73;3.43;;;1.50;99.90;;;;;;4113621;28;20761;-66
2022/12/07 04:36:28;;;;;;;5.07;3.00;;;1.60;99.90;;;;;;4115324;28;20908;-65
2022/12/07 04:38:29;;;;;;;7.17;2.87;;;1.50;99.90;;;;;;4113926;28;20186;-65
2022/12/07 04:40:30;;;;;;;5.37;3.47;;;1.60;99.90;;;;;;4115322;28;20183;-66
2022/12/07 04:42:30;;;;;;;5.60;3.70;;;1.70;99.90;;;;;;4115553;28;20187;-66
2022/12/07 04:44:31;;;;;;;5.47;3.50;;;1.60;99.90;;;;;;4112072;28;20190;-65
2022/12/07 04:46:32;;;;;;;6.73;4.20;;;1.50;99.90;;;;;;4115127;28;20206;-65
2022/12/07 04:48:33;;;;;;;9.53;4.27;;;1.60;99.90;;;;;;4114014;28;20179;-66
2022/12/07 04:50:35;;;;;;;5.33;3.77;;;1.50;99.90;;;;;;4115480;28;20563;-65
2022/12/07 04:52:36;;;;;;;6.90;4.40;;;1.60;99.90;;;;;;4114917;28;20279;-66
2022/12/07 04:54:36;;;;;;;7.37;4.73;;;1.70;99.90;;;;;;4115218;28;20480;-65
2022/12/07 04:56:37;;;;;;;6.93;3.93;;;1.70;99.90;;;;;;4115074;28;20208;-65
2022/12/07 04:58:38;;;;;;;7.27;4.90;;;1.70;99.90;;;;;;4114989;28;20190;-66
2022/12/07 05:00:39;;;;;;;7.50;5.40;;;1.60;99.90;;;;;;4115063;28;20489;-65
2022/12/07 05:02:40;;;;;;;6.37;4.03;;;1.60;99.90;;;;;;4114460;28;20236;-65
2022/12/07 05:04:41;;;;;;;6.37;4.23;;;1.70;99.90;;;;;;4114018;28;20953;-65
2022/12/07 05:06:42;;;;;;;5.93;3.70;;;1.70;99.90;;;;;;4115213;28;20675;-64
2022/12/07 05:08:44;;;;;;;5.63;3.77;;;1.50;99.90;;;;;;4113709;28;20888;-66
2022/12/07 05:10:44;;;;;;;7.70;4.50;;;1.60;99.90;;;;;;4115077;28;20184;-65
2022/12/07 05:12:45;;;;;;;5.10;3.67;;;1.40;99.90;;;;;;4114648;28;20537;-65
2022/12/07 05:14:46;;;;;;;5.67;4.00;;;1.40;99.90;;;;;;4114972;28;20193;-66
2022/12/07 05:16:50;;;;;;;7.83;4.80;;;1.50;99.90;;;;;;4115286;28;20684;-65
2022/12/07 05:18:51;;;;;;;7.43;4.40;;;1.60;99.90;;;;;;4113852;28;20195;-65
2022/12/07 05:20:51;;;;;;;5.20;3.50;;;1.70;99.90;;;;;;4130048;28;20873;-66
2022/12/07 05:22:52;;;;;;;5.40;3.77;;;1.40;99.90;;;;;;4114273;28;20758;-65
2022/12/07 05:24:53;;;;;;;9.17;5.03;;;1.50;99.90;;;;;;4113096;28;20215;-66
2022/12/07 05:26:54;;;;;;;5.33;3.47;;;1.70;99.90;;;;;;4100892;28;20221;-65
2022/12/07 05:28:56;;;;;;;6.33;3.83;;;1.70;99.90;;;;;;4098656;28;20787;-65
2022/12/07 05:30:57;;;;;;;6.87;3.87;;;1.70;99.90;;;;;;4098520;28;20271;-65
2022/12/07 05:32:58;;;;;;;7.87;4.80;;;1.80;99.90;;;;;;4098657;28;20507;-65
2022/12/07 05:34:59;;;;;;;5.63;3.73;;;1.70;99.90;;;;;;4114248;28;20193;-65
2022/12/07 05:36:59;;;;;;;6.33;4.23;;;1.50;99.90;;;;;;4114591;28;20206;-65
2022/12/07 05:39:00;;;;;;;6.20;4.07;;;1.40;99.90;;;;;;4114404;28;20200;-65
2022/12/07 05:41:03;;;;;;;7.33;4.37;;;1.50;99.90;;;;;;4113168;28;20198;-65
2022/12/07 05:43:03;;;;;;;7.40;5.13;;;1.50;99.90;;;;;;4113838;28;20189;-66
2022/12/07 05:45:05;;;;;;;8.07;4.80;;;1.30;99.90;;;;;;4114699;28;20427;-66
2022/12/07 05:47:06;;;;;;;6.53;4.23;;;1.30;99.90;;;;;;4114494;28;20212;-66
2022/12/07 05:49:06;;;;;;;7.97;5.23;;;1.40;99.90;;;;;;4113212;28;20436;-65
2022/12/07 05:51:07;;;;;;;9.63;5.63;;;1.20;99.90;;;;;;4114525;28;20210;-65
2022/12/07 05:53:08;;;;;;;8.77;5.80;;;1.10;99.90;;;;;;4114185;28;20804;-66
2022/12/07 05:55:08;;;;;;;9.73;5.30;;;0.90;99.90;;;;;;4113943;28;20683;-66
2022/12/07 05:57:09;;;;;;;9.70;5.57;;;0.80;99.90;;;;;;4114459;28;20805;-65
2022/12/07 05:59:22;;;;;;;6.87;4.50;;;0.80;99.90;;;;;;4114693;28;20709;-66
2022/12/07 06:01:23;;;;;;;8.57;4.90;;;1.00;99.90;;;;;;4114560;28;20177;-66
2022/12/07 06:03:23;;;;;;;7.63;4.83;;;1.10;99.90;;;;;;4113908;28;20448;-66
2022/12/07 06:05:24;;;;;;;7.23;4.97;;;1.10;99.90;;;;;;4114719;28;20199;-66
2022/12/07 06:07:25;;;;;;;7.47;4.43;;;1.10;99.90;;;;;;4113032;28;20216;-65
2022/12/07 06:09:27;;;;;;;8.27;4.47;;;0.90;99.90;;;;;;4113939;28;20191;-66
2022/12/07 06:13:47;;;;;;;6.97;3.67;;;0.70;99.90;;;;;;4113784;28;20409;-66
2022/12/07 06:15:48;;;;;;;6.83;4.17;;;0.70;99.90;;;;;;4114050;28;20438;-65
2022/12/07 06:17:48;;;;;;;7.00;3.90;;;0.70;99.90;;;;;;4113730;28;20207;-66
2022/12/07 06:19:49;;;;;;;8.33;4.83;;;0.70;99.90;;;;;;4113910;28;20184;-66
2022/12/07 06:21:51;;;;;;;7.80;4.70;;;0.50;99.90;;;;;;4114027;28;20262;-66
2022/12/07 06:23:52;;;;;;;9.70;4.33;;;0.40;99.90;;;;;;4111877;28;20195;-66
2022/12/07 06:25:53;;;;;;;7.60;4.27;;;0.20;99.90;;;;;;4112762;28;20438;-66
2022/12/07 06:27:55;;;;;;;6.77;3.77;;;0.20;99.90;;;;;;4112682;28;20465;-66
2022/12/07 06:29:55;;;;;;;8.17;4.60;;;0.20;99.90;;;;;;4114234;28;20711;-65
2022/12/07 06:31:57;;;;;;;7.30;5.07;;;0.10;99.90;;;;;;4113878;28;20525;-66
2022/12/07 06:34:04;;;;;;;6.30;3.97;;;0.00;99.90;;;;;;4111974;28;20179;-65
2022/12/07 06:36:05;;;;;;;12.13;5.07;;;0.00;99.90;;;;;;4113608;28;20461;-66
2022/12/07 06:38:05;;;;;;;8.20;4.83;;;-0.10;99.90;;;;;;4113772;28;21000;-65
2022/12/07 06:40:07;;;;;;;9.37;4.93;;;0.00;99.90;;;;;;4113508;28;20434;-65
2022/12/07 06:42:08;;;;;;;6.87;4.53;;;0.00;99.90;;;;;;4112273;28;20233;-66
2022/12/07 06:44:08;;;;;;;9.50;6.30;;;-0.10;99.90;;;;;;4112933;28;20466;-65
2022/12/07 06:46:09;;;;;;;9.97;5.27;;;-0.10;99.90;;;;;;4113537;28;20829;-65
2022/12/07 06:48:10;;;;;;;9.13;5.87;;;-0.20;99.90;;;;;;4112642;28;20179;-66
2022/12/07 06:50:10;;;;;;;10.33;5.17;;;-0.30;99.90;;;;;;4113515;28;20199;-66
2022/12/07 06:52:11;;;;;;;9.63;5.43;;;-0.40;99.90;;;;;;4113543;28;20225;-65
2022/12/07 06:54:14;;;;;;;8.80;5.13;;;-0.50;99.90;;;;;;4112975;28;20201;-66
2022/12/07 06:56:15;;;;;;;8.60;5.23;;;-0.60;99.90;;;;;;4112455;28;20420;-65
2022/12/07 06:58:16;;;;;;;11.93;5.57;;;-0.70;99.90;;;;;;4113467;28;20457;-66
2022/12/07 07:00:18;;;;;;;10.23;5.43;;;-0.70;99.90;;;;;;4112126;28;20672;-65
2022/12/07 07:02:18;;;;;;;10.83;5.23;;;-0.60;99.90;;;;;;4112232;28;20445;-66
2022/12/07 07:04:19;;;;;;;9.30;5.17;;;-0.70;99.90;;;;;;4112950;28;21273;-65
2022/12/07 07:06:20;;;;;;;9.07;5.03;;;-0.70;99.90;;;;;;4113102;28;20620;-65
2022/12/07 07:08:20;;;;;;;9.13;4.63;;;-0.80;99.90;;;;;;4111686;28;20187;-66
2022/12/07 07:10:21;;;;;;;7.23;4.07;;;-0.80;99.90;;;;;;4113317;28;20191;-65
2022/12/07 07:12:22;;;;;;;10.63;4.53;;;-0.80;99.90;;;;;;4113251;28;20222;-65
2022/12/07 07:14:22;;;;;;;9.30;4.30;;;-0.90;99.90;;;;;;4112676;28;20187;-65
2022/12/07 07:16:24;;;;;;;7.70;4.63;;;-0.90;99.90;;;;;;4111808;28;20207;-65
2022/12/07 07:18:25;;;;;;;7.80;4.20;;;-0.90;99.90;;;;;;4113474;28;20698;-65
2022/12/07 07:20:26;;;;;;;8.10;4.20;;;-0.90;99.90;;;;;;4113299;28;20453;-66
2022/12/07 07:22:27;;;;;;;8.03;4.50;;;-0.90;99.90;;;;;;4113172;28;20434;-65
2022/12/07 07:24:27;;;;;;;7.83;4.00;;;-0.90;99.90;;;;;;4112744;28;20226;-65
2022/12/07 07:26:28;;;;;;;8.03;4.10;;;-0.90;99.90;;;;;;4113249;28;20214;-66
2022/12/07 07:28:28;;;;;;;7.47;3.83;;;-1.00;99.90;;;;;;4113398;28;20187;-65
2022/12/07 07:30:29;;;;;;;10.80;5.53;;;-1.00;99.90;;;;;;4113680;28;20975;-65
2022/12/07 07:32:30;;;;;;;12.10;7.00;;;-0.90;99.90;;;;;;4104361;28;20226;-65
2022/12/07 07:34:31;;;;;;;14.37;7.07;;;-0.90;99.90;;;;;;4096775;29;20218;-66
2022/12/07 07:36:32;;;;;;;10.50;5.70;;;-0.90;99.90;;;;;;4097348;28;20254;-66
2022/12/07 07:38:33;;;;;;;8.93;5.57;;;-0.80;99.90;;;;;;4097294;28;20881;-65
2022/12/07 07:40:34;;;;;;;10.67;5.60;;;-0.90;99.90;;;;;;4097229;28;20419;-66
2022/12/07 07:42:35;;;;;;;11.27;5.40;;;-0.90;99.90;;;;;;4096897;28;20763;-66
2022/12/07 07:44:35;;;;;;;9.70;4.97;;;-0.90;99.90;;;;;;4097261;28;20332;-66
2022/12/07 07:46:36;;;;;;;10.87;5.13;;;-0.80;99.90;;;;;;4097271;29;20203;-66
2022/12/07 07:48:37;;;;;;;8.00;3.83;;;-0.80;99.90;;;;;;4097171;28;20597;-66
2022/12/07 07:50:37;;;;;;;6.93;3.73;;;-0.80;99.90;;;;;;4097008;28;20183;-65
2022/12/07 07:52:39;;;;;;;8.17;4.23;;;-0.70;99.90;;;;;;4096576;28;20187;-66
2022/12/07 07:54:39;;;;;;;7.40;3.60;;;-0.70;99.90;;;;;;4111832;28;20700;-65
2022/12/07 07:56:40;;;;;;;5.77;3.60;;;-0.70;99.90;;;;;;4097875;28;20493;-65
2022/12/07 07:58:40;;;;;;;7.40;4.50;;;-0.60;99.90;;;;;;4097676;29;20191;-65
2022/12/07 08:00:41;;;;;;;9.87;5.37;;;-0.50;99.90;;;;;;4111565;28;20195;-66
2022/12/07 08:02:43;;;;;;;9.77;5.77;;;-0.30;99.90;;;;;;4112365;28;20680;-66
2022/12/07 08:04:44;;;;;;;12.10;6.43;;;-0.30;99.90;;;;;;4111722;28;20619;-66
2022/12/07 08:06:45;;;;;;;13.83;7.30;;;-0.40;99.90;;;;;;4128053;28;21008;-65
2022/12/07 08:08:47;;;;;;;9.80;5.77;;;-0.20;99.90;;;;;;4113246;28;20523;-65
2022/12/07 08:10:47;;;;;;;13.20;7.17;;;-0.10;99.90;;;;;;4112849;28;20507;-66
2022/12/07 08:15:08;;;;;;;12.73;6.47;;;-0.10;99.90;;;;;;4112534;28;20218;-65
2022/12/07 08:17:08;;;;;;;12.43;6.13;;;0.10;99.90;;;;;;4108856;28;20459;-66
2022/12/07 08:19:09;;;;;;;8.53;4.63;;;0.20;99.90;;;;;;4114863;28;20498;-66
2022/12/07 08:21:13;;;;;;;7.57;3.97;;;0.10;99.90;;;;;;4115758;28;20334;-66
2022/12/07 08:23:14;;;;;;;6.77;4.30;;;0.00;99.90;;;;;;4113826;28;20182;-65
2022/12/07 08:25:15;;;;;;;7.53;4.53;;;0.00;99.90;;;;;;4115760;28;20430;-65
2022/12/07 08:27:16;;;;;;;8.77;4.57;;;0.10;99.90;;;;;;4115825;28;20214;-66
2022/12/07 08:29:17;;;;;;;8.00;4.10;;;0.10;99.90;;;;;;4115590;28;20184;-68
2022/12/07 08:31:18;;;;;;;7.30;4.10;;;0.30;99.90;;;;;;4114268;28;20213;-66
2022/12/07 08:33:22;;;;;;;6.43;3.87;;;0.50;99.90;;;;;;4114830;28;20574;-66
2022/12/07 08:35:23;;;;;;;6.50;3.73;;;0.60;99.90;;;;;;4115643;28;20451;-65
2022/12/07 08:37:24;;;;;;;6.87;4.33;;;0.80;99.90;;;;;;4113974;28;20543;-65
2022/12/07 08:39:25;;;;;;;5.47;3.17;;;1.00;99.90;;;;;;4115625;28;20470;-65
2022/12/07 08:41:26;;;;;;;5.67;3.93;;;1.00;99.90;;;;;;4115480;28;20194;-66
2022/12/07 08:43:26;;;;;;;4.57;3.10;;;1.20;99.90;;;;;;4114801;28;20217;-66
2022/12/07 08:45:27;;;;;;;5.27;3.47;;;1.20;99.90;;;;;;4115388;28;20233;-66
2022/12/07 08:47:28;;;;;;;4.83;3.33;;;1.30;99.90;;;;;;4115182;28;20201;-66
2022/12/07 08:49:41;;;;;;;12.53;3.53;;;1.40;99.90;;;;;;4114092;28;20183;-65
2022/12/07 08:51:42;;;;;;;4.80;2.73;;;1.70;99.90;;;;;;4114127;28;20201;-66
2022/12/07 08:53:44;;;;;;;4.77;3.47;;;1.90;99.90;;;;;;4113508;28;20457;-66
2022/12/07 08:55:46;;;;;;;2.83;2.10;;;2.10;99.60;;;;;;4113708;28;20253;-66
2022/12/07 08:57:47;;;;;;;4.23;2.83;;;2.30;97.40;;;;;;4114096;28;20453;-66
2022/12/07 08:59:48;;;;;;;4.27;2.70;;;2.40;96.80;;;;;;4113950;28;20429;-66
2022/12/07 09:01:49;;;;;;;5.17;2.90;;;2.60;97.30;;;;;;4115237;28;20241;-66
2022/12/07 09:03:49;;;;;;;2.93;2.10;;;2.80;96.80;;;;;;4113282;28;20193;-66
2022/12/07 09:05:50;;;;;;;2.50;2.20;;;2.80;94.30;;;;;;4115189;28;20201;-66
2022/12/07 09:07:57;;;;;;;3.30;2.40;;;2.70;94.00;;;;;;4114926;28;20306;-64
2022/12/07 09:09:58;;;;;;;3.10;2.33;;;2.90;93.70;;;;;;4115106;28;20535;-64
2022/12/07 09:11:59;;;;;;;2.50;2.00;;;2.90;93.50;;;;;;4115023;28;20485;-65
2022/12/07 09:13:59;;;;;;;3.60;2.57;;;2.70;94.10;;;;;;4114270;28;20190;-64
2022/12/07 09:16:00;;;;;;;3.03;2.10;;;2.80;95.00;;;;;;4114810;28;20191;-65
2022/12/07 09:18:01;;;;;;;2.87;2.10;;;2.70;92.90;;;;;;4115131;28;20206;-64
2022/12/07 09:20:05;;;;;;;3.13;2.23;;;2.60;94.50;;;;;;4114878;28;20998;-65
2022/12/07 09:22:06;;;;;;;4.13;2.57;;;2.80;95.20;;;;;;4115078;28;20250;-64
2022/12/07 09:24:06;;;;;;;3.13;2.10;;;3.30;92.70;;;;;;4114247;28;20426;-65
2022/12/07 09:26:07;;;;;;;4.47;2.20;;;3.70;91.10;;;;;;4114635;28;20753;-65
2022/12/07 09:28:08;;;;;;;2.57;2.07;;;4.10;86.50;;;;;;4115017;28;20655;-65
2022/12/07 09:30:09;;;;;;;2.60;1.83;;;4.60;85.40;;;;;;4112654;28;20745;-65
2022/12/07 09:32:10;;;;;;;2.57;2.00;;;5.20;82.60;;;;;;4114773;28;20294;-64
2022/12/07 09:34:10;;;;;;;2.47;2.10;;;5.50;76.70;;;;;;4107579;28;20184;-65
2022/12/07 09:36:11;;;;;;;2.37;2.10;;;6.00;74.00;;;;;;4113302;28;20179;-64
2022/12/07 09:38:12;;;;;;;2.90;2.23;;;6.10;70.10;;;;;;4098739;28;20191;-65
2022/12/07 09:40:14;;;;;;;2.50;2.27;;;5.70;69.60;;;;;;4098517;28;20679;-65
2022/12/07 09:42:30;;;;;;;2.63;2.23;;;5.50;77.00;;;;;;4113355;28;20186;-65
2022/12/07 09:44:30;;;;;;;3.93;2.50;;;5.30;73.40;;;;;;4112762;28;20762;-65
2022/12/07 09:46:38;;;;;;;2.70;2.00;;;5.20;74.60;;;;;;4097337;28;20455;-65
2022/12/07 09:48:40;;;;;;;2.13;1.77;;;5.40;74.90;;;;;;4098534;28;20181;-66
2022/12/07 09:50:41;;;;;;;4.13;1.90;;;5.70;74.20;;;;;;4113136;28;20269;-65
2022/12/07 09:52:45;;;;;;;2.70;2.00;;;6.20;72.40;;;;;;4097670;29;20735;-65
2022/12/07 09:54:49;;;;;;;3.07;1.73;;;6.40;72.40;;;;;;4113140;28;20187;-65
2022/12/07 09:56:50;;;;;;;2.27;1.80;;;6.80;71.20;;;;;;4098319;28;20590;-65
2022/12/07 09:59:00;;;;;;;3.23;2.37;;;7.10;66.10;;;;;;4098426;28;20279;-65
2022/12/07 10:01:09;;;;;;;2.27;1.87;;;6.70;66.70;;;;;;4113258;28;20199;-64
2022/12/07 10:03:12;;;;;;;2.77;2.00;;;6.60;69.80;;;;;;4098137;28;20197;-64
2022/12/07 10:05:21;;;;;;;2.20;1.80;;;6.70;66.70;;;;;;4112861;28;20700;-64
2022/12/07 10:07:21;;;;;;;2.20;2.00;;;6.50;64.00;;;;;;4112901;28;20202;-65
2022/12/07 10:09:22;;;;;;;2.50;2.00;;;5.70;66.50;;;;;;4114042;28;20202;-65
2022/12/07 10:11:23;;;;;;;3.03;2.00;;;5.60;68.00;;;;;;4114265;28;20257;-64
2022/12/07 10:13:40;;;;;;;2.50;2.00;;;5.20;69.90;;;;;;4113695;28;20186;-64
2022/12/07 10:15:56;;;;;;;2.43;1.90;;;4.70;75.10;;;;;;4113979;28;20196;-64
2022/12/07 10:17:59;;;;;;;3.73;2.30;;;5.30;72.50;;;;;;4112744;28;20202;-64
2022/12/07 10:20:26;;;;;;;3.17;2.30;;;5.80;70.60;;;;;;4114009;28;20179;-64
2022/12/07 10:22:27;;;;;;;2.33;2.10;;;6.20;68.30;;;;;;4113841;28;20175;-65
2022/12/07 10:24:27;;;;;;;3.37;2.23;;;6.50;68.80;;;;;;4113516;28;20318;-65
2022/12/07 10:26:46;;;;;;;3.07;2.03;;;7.00;65.30;;;;;;4113859;28;20211;-64
2022/12/07 10:28:48;;;;;;;3.17;2.20;;;7.40;62.20;;;;;;4114080;28;20187;-64
2022/12/07 10:31:19;;;;;;;2.03;1.73;;;7.40;61.50;;;;;;4112657;28;20197;-65
2022/12/07 10:33:38;;;;;;;3.30;1.80;;;7.70;60.20;;;;;;4112466;28;20550;-65
2022/12/07 10:35:43;;;;;;;3.10;2.10;;;7.90;60.00;;;;;;4112685;28;20671;-65
2022/12/07 10:37:45;;;;;;;3.17;1.90;;;7.90;60.30;;;;;;4113645;28;20214;-65
2022/12/07 10:39:48;;;;;;;3.37;2.00;;;8.30;59.90;;;;;;4113935;28;20194;-64
2022/12/07 10:42:03;;;;;;;3.60;2.00;;;8.60;59.70;;;;;;4113620;28;20219;-65
2022/12/07 10:44:03;;;;;;;2.10;1.90;;;9.10;58.00;;;;;;4113191;28;20249;-64
2022/12/07 10:46:47;;;;;;;1.80;1.60;;;9.30;56.20;;;;;;4113624;28;20613;-65
2022/12/07 10:49:05;;;;;;;2.40;1.77;;;9.40;54.60;;;;;;4113519;28;20211;-65
2022/12/07 10:51:32;;;;;;;1.73;1.63;;;9.70;52.90;;;;;;4112157;28;20768;-65
2022/12/07 10:53:42;;;;;;;1.50;1.40;;;9.70;53.70;;;;;;4112807;28;20651;-65
2022/12/07 10:55:46;;;;;;;2.07;1.73;;;10.00;52.10;;;;;;4113212;28;20198;-65
2022/12/07 10:58:07;;;;;;;2.33;1.80;;;10.30;52.30;;;;;;4113312;28;20211;-64
2022/12/07 11:00:24;;;;;;;1.73;1.50;;;10.40;50.30;;;;;;4112237;28;20175;-65